sensor_id;sensor_type;location;lat;lon;timestamp;P1;durP1;ratioP1;P2;durP2;ratioP2
18793;SDS011;29610;49.022;12.114;2023-12-14T00:00:06;28.10;;;14.30;;
18793;SDS011;29610;49.022;12.114;2023-12-14T00:02:35;36.93;;;13.43;;
18793;SDS011;29610;49.022;12.114;2023-12-14T00:05:04;22.80;;;12.37;;
18793;SDS011;29610;49.022;12.114;2023-12-14T00:07:33;24.93;;;12.27;;
18793;SDS011;29610;49.022;12.114;2023-12-14T00:10:01;28.10;;;12.10;;
18793;SDS011;29610;49.022;12.114;2023-12-14T00:12:31;26.57;;;11.87;;
18793;SDS011;29610;49.022;12.114;2023-12-14T00:14:59;25.97;;;12.87;;
18793;SDS011;29610;49.022;12.114;2023-12-14T00:17:30;24.73;;;12.10;;
18793;SDS011;29610;49.022;12.114;2023-12-14T00:19:58;32.23;;;14.30;;
18793;SDS011;29610;49.022;12.114;2023-12-14T00:22:27;26.53;;;13.50;;
18793;SDS011;29610;49.022;12.114;2023-12-14T00:24:55;19.93;;;10.73;;
18793;SDS011;29610;49.022;12.114;2023-12-14T00:27:23;26.00;;;12.73;;
18793;SDS011;29610;49.022;12.114;2023-12-14T00:29:51;25.10;;;12.30;;
18793;SDS011;29610;49.022;12.114;2023-12-14T00:32:19;22.47;;;11.50;;
18793;SDS011;29610;49.022;12.114;2023-12-14T00:34:49;17.60;;;9.10;;
18793;SDS011;29610;49.022;12.114;2023-12-14T00:37:17;19.97;;;8.67;;
18793;SDS011;29610;49.022;12.114;2023-12-14T00:39:45;21.80;;;9.27;;
18793;SDS011;29610;49.022;12.114;2023-12-14T00:42:13;21.60;;;9.67;;
18793;SDS011;29610;49.022;12.114;2023-12-14T00:44:42;18.87;;;8.70;;
18793;SDS011;29610;49.022;12.114;2023-12-14T00:47:10;22.13;;;9.20;;
18793;SDS011;29610;49.022;12.114;2023-12-14T00:49:38;17.10;;;7.43;;
18793;SDS011;29610;49.022;12.114;2023-12-14T00:52:08;14.93;;;7.13;;
18793;SDS011;29610;49.022;12.114;2023-12-14T00:54:36;12.57;;;6.47;;
18793;SDS011;29610;49.022;12.114;2023-12-14T00:57:04;13.27;;;6.90;;
18793;SDS011;29610;49.022;12.114;2023-12-14T00:59:32;13.07;;;6.57;;
18793;SDS011;29610;49.022;12.114;2023-12-14T01:02:00;12.77;;;6.40;;
18793;SDS011;29610;49.022;12.114;2023-12-14T01:04:29;12.17;;;5.90;;
18793;SDS011;29610;49.022;12.114;2023-12-14T01:06:57;10.63;;;5.70;;
18793;SDS011;29610;49.022;12.114;2023-12-14T01:09:27;13.87;;;6.10;;
18793;SDS011;29610;49.022;12.114;2023-12-14T01:11:56;13.87;;;6.23;;
18793;SDS011;29610;49.022;12.114;2023-12-14T01:14:25;16.43;;;7.20;;
18793;SDS011;29610;49.022;12.114;2023-12-14T01:16:54;11.30;;;5.53;;
18793;SDS011;29610;49.022;12.114;2023-12-14T01:19:22;11.40;;;6.13;;
18793;SDS011;29610;49.022;12.114;2023-12-14T01:21:51;11.97;;;6.00;;
18793;SDS011;29610;49.022;12.114;2023-12-14T01:24:22;15.07;;;6.27;;
18793;SDS011;29610;49.022;12.114;2023-12-14T01:26:51;11.60;;;6.27;;
18793;SDS011;29610;49.022;12.114;2023-12-14T01:29:19;11.83;;;5.73;;
18793;SDS011;29610;49.022;12.114;2023-12-14T01:31:47;12.90;;;6.00;;
18793;SDS011;29610;49.022;12.114;2023-12-14T01:34:16;11.67;;;6.00;;
18793;SDS011;29610;49.022;12.114;2023-12-14T01:36:44;12.73;;;5.70;;
18793;SDS011;29610;49.022;12.114;2023-12-14T01:39:13;11.60;;;5.70;;
18793;SDS011;29610;49.022;12.114;2023-12-14T01:41:42;13.03;;;5.53;;
18793;SDS011;29610;49.022;12.114;2023-12-14T01:44:11;11.73;;;5.70;;
18793;SDS011;29610;49.022;12.114;2023-12-14T01:46:39;11.40;;;5.80;;
18793;SDS011;29610;49.022;12.114;2023-12-14T01:49:08;14.40;;;6.30;;
18793;SDS011;29610;49.022;12.114;2023-12-14T01:51:36;11.90;;;6.10;;
18793;SDS011;29610;49.022;12.114;2023-12-14T01:54:04;12.63;;;5.50;;
18793;SDS011;29610;49.022;12.114;2023-12-14T01:56:32;11.30;;;5.63;;
18793;SDS011;29610;49.022;12.114;2023-12-14T01:59:01;13.70;;;6.23;;
18793;SDS011;29610;49.022;12.114;2023-12-14T02:01:33;9.70;;;5.33;;
18793;SDS011;29610;49.022;12.114;2023-12-14T02:04:08;11.87;;;5.27;;
18793;SDS011;29610;49.022;12.114;2023-12-14T02:06:38;10.43;;;5.33;;
18793;SDS011;29610;49.022;12.114;2023-12-14T02:09:07;9.67;;;4.90;;
18793;SDS011;29610;49.022;12.114;2023-12-14T02:11:36;14.10;;;5.43;;
18793;SDS011;29610;49.022;12.114;2023-12-14T02:14:05;14.27;;;4.50;;
18793;SDS011;29610;49.022;12.114;2023-12-14T02:16:37;9.17;;;4.50;;
18793;SDS011;29610;49.022;12.114;2023-12-14T02:19:05;8.97;;;4.63;;
18793;SDS011;29610;49.022;12.114;2023-12-14T02:21:34;12.83;;;4.93;;
18793;SDS011;29610;49.022;12.114;2023-12-14T02:24:04;8.70;;;3.70;;
18793;SDS011;29610;49.022;12.114;2023-12-14T02:26:32;9.10;;;4.50;;
18793;SDS011;29610;49.022;12.114;2023-12-14T02:29:00;8.13;;;4.50;;
18793;SDS011;29610;49.022;12.114;2023-12-14T02:31:29;10.53;;;4.97;;
18793;SDS011;29610;49.022;12.114;2023-12-14T02:33:57;10.10;;;4.77;;
18793;SDS011;29610;49.022;12.114;2023-12-14T02:36:25;14.90;;;4.77;;
18793;SDS011;29610;49.022;12.114;2023-12-14T02:38:53;9.53;;;4.43;;
18793;SDS011;29610;49.022;12.114;2023-12-14T02:41:24;8.43;;;4.33;;
18793;SDS011;29610;49.022;12.114;2023-12-14T02:43:52;8.90;;;4.70;;
18793;SDS011;29610;49.022;12.114;2023-12-14T02:46:20;11.47;;;4.63;;
18793;SDS011;29610;49.022;12.114;2023-12-14T02:48:49;9.47;;;4.67;;
18793;SDS011;29610;49.022;12.114;2023-12-14T02:51:17;8.67;;;4.20;;
18793;SDS011;29610;49.022;12.114;2023-12-14T02:53:45;11.00;;;5.60;;
18793;SDS011;29610;49.022;12.114;2023-12-14T02:56:14;11.13;;;5.00;;
18793;SDS011;29610;49.022;12.114;2023-12-14T02:58:43;8.70;;;4.30;;
18793;SDS011;29610;49.022;12.114;2023-12-14T03:01:15;11.70;;;4.93;;
18793;SDS011;29610;49.022;12.114;2023-12-14T03:03:47;10.90;;;5.43;;
18793;SDS011;29610;49.022;12.114;2023-12-14T03:06:15;13.90;;;6.10;;
18793;SDS011;29610;49.022;12.114;2023-12-14T03:08:43;19.80;;;6.50;;
18793;SDS011;29610;49.022;12.114;2023-12-14T03:11:20;10.57;;;4.93;;
18793;SDS011;29610;49.022;12.114;2023-12-14T03:13:51;12.57;;;6.10;;
18793;SDS011;29610;49.022;12.114;2023-12-14T03:16:19;13.50;;;5.73;;
18793;SDS011;29610;49.022;12.114;2023-12-14T03:18:48;13.20;;;5.50;;
18793;SDS011;29610;49.022;12.114;2023-12-14T03:21:19;18.83;;;6.57;;
18793;SDS011;29610;49.022;12.114;2023-12-14T03:23:48;12.07;;;5.90;;
18793;SDS011;29610;49.022;12.114;2023-12-14T03:26:16;13.73;;;5.77;;
18793;SDS011;29610;49.022;12.114;2023-12-14T03:28:44;12.60;;;6.27;;
18793;SDS011;29610;49.022;12.114;2023-12-14T03:31:14;13.20;;;5.20;;
18793;SDS011;29610;49.022;12.114;2023-12-14T03:33:42;15.10;;;6.20;;
18793;SDS011;29610;49.022;12.114;2023-12-14T03:36:11;13.10;;;5.80;;
18793;SDS011;29610;49.022;12.114;2023-12-14T03:38:39;13.43;;;5.67;;
18793;SDS011;29610;49.022;12.114;2023-12-14T03:41:07;12.37;;;6.40;;
18793;SDS011;29610;49.022;12.114;2023-12-14T03:43:36;15.73;;;6.43;;
18793;SDS011;29610;49.022;12.114;2023-12-14T03:46:04;13.17;;;6.70;;
18793;SDS011;29610;49.022;12.114;2023-12-14T03:48:34;16.03;;;6.17;;
18793;SDS011;29610;49.022;12.114;2023-12-14T03:51:03;14.80;;;6.70;;
18793;SDS011;29610;49.022;12.114;2023-12-14T03:53:32;14.27;;;5.53;;
18793;SDS011;29610;49.022;12.114;2023-12-14T03:56:00;14.23;;;6.70;;
18793;SDS011;29610;49.022;12.114;2023-12-14T03:58:29;15.37;;;6.07;;
18793;SDS011;29610;49.022;12.114;2023-12-14T04:00:57;13.40;;;6.57;;
18793;SDS011;29610;49.022;12.114;2023-12-14T04:03:25;13.73;;;6.80;;
18793;SDS011;29610;49.022;12.114;2023-12-14T04:05:55;18.37;;;8.77;;
18793;SDS011;29610;49.022;12.114;2023-12-14T04:08:23;17.67;;;9.43;;
18793;SDS011;29610;49.022;12.114;2023-12-14T04:10:51;17.67;;;7.93;;
18793;SDS011;29610;49.022;12.114;2023-12-14T04:13:20;15.30;;;7.27;;
18793;SDS011;29610;49.022;12.114;2023-12-14T04:15:48;19.07;;;7.67;;
18793;SDS011;29610;49.022;12.114;2023-12-14T04:18:16;17.03;;;7.83;;
18793;SDS011;29610;49.022;12.114;2023-12-14T04:20:44;15.37;;;7.57;;
18793;SDS011;29610;49.022;12.114;2023-12-14T04:23:14;20.10;;;7.77;;
18793;SDS011;29610;49.022;12.114;2023-12-14T04:25:42;20.07;;;8.73;;
18793;SDS011;29610;49.022;12.114;2023-12-14T04:28:10;20.40;;;10.23;;
18793;SDS011;29610;49.022;12.114;2023-12-14T04:30:39;19.03;;;10.00;;
18793;SDS011;29610;49.022;12.114;2023-12-14T04:33:08;20.00;;;9.90;;
18793;SDS011;29610;49.022;12.114;2023-12-14T04:35:36;16.37;;;8.43;;
18793;SDS011;29610;49.022;12.114;2023-12-14T04:38:04;21.40;;;9.47;;
18793;SDS011;29610;49.022;12.114;2023-12-14T04:40:34;15.70;;;7.70;;
18793;SDS011;29610;49.022;12.114;2023-12-14T04:43:02;18.27;;;8.30;;
18793;SDS011;29610;49.022;12.114;2023-12-14T04:45:30;14.80;;;7.57;;
18793;SDS011;29610;49.022;12.114;2023-12-14T04:47:58;16.83;;;7.10;;
18793;SDS011;29610;49.022;12.114;2023-12-14T04:50:27;16.10;;;7.40;;
18793;SDS011;29610;49.022;12.114;2023-12-14T04:52:55;17.43;;;8.70;;
18793;SDS011;29610;49.022;12.114;2023-12-14T04:55:23;16.17;;;7.80;;
18793;SDS011;29610;49.022;12.114;2023-12-14T04:57:53;15.10;;;7.70;;
18793;SDS011;29610;49.022;12.114;2023-12-14T05:00:21;14.23;;;7.20;;
18793;SDS011;29610;49.022;12.114;2023-12-14T05:02:49;18.63;;;8.73;;
18793;SDS011;29610;49.022;12.114;2023-12-14T05:05:17;13.67;;;7.40;;
18793;SDS011;29610;49.022;12.114;2023-12-14T05:07:46;15.73;;;7.90;;
18793;SDS011;29610;49.022;12.114;2023-12-14T05:10:14;15.13;;;8.10;;
18793;SDS011;29610;49.022;12.114;2023-12-14T05:12:42;20.73;;;9.63;;
18793;SDS011;29610;49.022;12.114;2023-12-14T05:15:12;15.37;;;7.30;;
18793;SDS011;29610;49.022;12.114;2023-12-14T05:17:41;16.70;;;8.27;;
18793;SDS011;29610;49.022;12.114;2023-12-14T05:20:09;21.23;;;8.37;;
18793;SDS011;29610;49.022;12.114;2023-12-14T05:22:38;22.80;;;9.50;;
18793;SDS011;29610;49.022;12.114;2023-12-14T05:25:07;16.13;;;7.77;;
18793;SDS011;29610;49.022;12.114;2023-12-14T05:27:36;18.40;;;8.77;;
18793;SDS011;29610;49.022;12.114;2023-12-14T05:30:05;21.83;;;9.70;;
18793;SDS011;29610;49.022;12.114;2023-12-14T05:32:36;22.27;;;10.03;;
18793;SDS011;29610;49.022;12.114;2023-12-14T05:35:05;29.93;;;10.80;;
18793;SDS011;29610;49.022;12.114;2023-12-14T05:37:36;22.37;;;9.93;;
18793;SDS011;29610;49.022;12.114;2023-12-14T05:40:07;22.97;;;10.83;;
18793;SDS011;29610;49.022;12.114;2023-12-14T05:42:37;23.70;;;12.00;;
18793;SDS011;29610;49.022;12.114;2023-12-14T05:45:06;24.70;;;11.43;;
18793;SDS011;29610;49.022;12.114;2023-12-14T05:47:40;23.80;;;11.03;;
18793;SDS011;29610;49.022;12.114;2023-12-14T05:50:08;26.67;;;10.23;;
18793;SDS011;29610;49.022;12.114;2023-12-14T05:52:37;28.07;;;10.67;;
18793;SDS011;29610;49.022;12.114;2023-12-14T05:55:07;21.77;;;10.53;;
18793;SDS011;29610;49.022;12.114;2023-12-14T05:57:37;27.70;;;11.73;;
18793;SDS011;29610;49.022;12.114;2023-12-14T06:00:05;28.40;;;11.50;;
18793;SDS011;29610;49.022;12.114;2023-12-14T06:02:35;18.53;;;9.00;;
18793;SDS011;29610;49.022;12.114;2023-12-14T06:05:07;20.93;;;10.33;;
18793;SDS011;29610;49.022;12.114;2023-12-14T06:07:36;22.17;;;10.60;;
18793;SDS011;29610;49.022;12.114;2023-12-14T06:10:05;21.83;;;10.10;;
18793;SDS011;29610;49.022;12.114;2023-12-14T06:12:35;20.00;;;9.73;;
18793;SDS011;29610;49.022;12.114;2023-12-14T06:15:04;28.23;;;12.37;;
18793;SDS011;29610;49.022;12.114;2023-12-14T06:17:34;24.70;;;12.33;;
18793;SDS011;29610;49.022;12.114;2023-12-14T06:20:04;26.50;;;11.73;;
18793;SDS011;29610;49.022;12.114;2023-12-14T06:22:35;21.40;;;10.73;;
18793;SDS011;29610;49.022;12.114;2023-12-14T06:25:04;27.17;;;11.60;;
18793;SDS011;29610;49.022;12.114;2023-12-14T06:27:33;29.70;;;12.57;;
18793;SDS011;29610;49.022;12.114;2023-12-14T06:30:02;33.07;;;12.63;;
18793;SDS011;29610;49.022;12.114;2023-12-14T06:32:31;25.87;;;11.10;;
18793;SDS011;29610;49.022;12.114;2023-12-14T06:35:00;30.50;;;13.20;;
18793;SDS011;29610;49.022;12.114;2023-12-14T06:37:30;33.40;;;12.50;;
18793;SDS011;29610;49.022;12.114;2023-12-14T06:39:58;26.90;;;11.43;;
18793;SDS011;29610;49.022;12.114;2023-12-14T06:42:26;32.90;;;12.67;;
18793;SDS011;29610;49.022;12.114;2023-12-14T06:44:55;30.43;;;12.07;;
18793;SDS011;29610;49.022;12.114;2023-12-14T06:47:23;33.37;;;13.50;;
18793;SDS011;29610;49.022;12.114;2023-12-14T06:49:52;32.43;;;13.67;;
18793;SDS011;29610;49.022;12.114;2023-12-14T06:52:22;38.67;;;13.80;;
18793;SDS011;29610;49.022;12.114;2023-12-14T06:54:52;39.40;;;15.30;;
18793;SDS011;29610;49.022;12.114;2023-12-14T06:57:20;34.50;;;15.03;;
18793;SDS011;29610;49.022;12.114;2023-12-14T06:59:51;35.27;;;13.63;;
18793;SDS011;29610;49.022;12.114;2023-12-14T07:02:20;31.13;;;14.10;;
18793;SDS011;29610;49.022;12.114;2023-12-14T07:04:48;34.30;;;13.93;;
18793;SDS011;29610;49.022;12.114;2023-12-14T07:07:16;33.80;;;14.00;;
18793;SDS011;29610;49.022;12.114;2023-12-14T07:09:44;35.80;;;13.23;;
18793;SDS011;29610;49.022;12.114;2023-12-14T07:12:14;34.83;;;13.50;;
18793;SDS011;29610;49.022;12.114;2023-12-14T07:14:43;32.87;;;12.73;;
18793;SDS011;29610;49.022;12.114;2023-12-14T07:17:11;34.87;;;12.50;;
18793;SDS011;29610;49.022;12.114;2023-12-14T07:19:39;35.87;;;12.87;;
18793;SDS011;29610;49.022;12.114;2023-12-14T07:22:08;36.57;;;13.70;;
18793;SDS011;29610;49.022;12.114;2023-12-14T07:24:35;38.27;;;14.87;;
18793;SDS011;29610;49.022;12.114;2023-12-14T07:27:19;27.57;;;12.27;;
18793;SDS011;29610;49.022;12.114;2023-12-14T07:29:47;38.80;;;14.93;;
18793;SDS011;29610;49.022;12.114;2023-12-14T07:32:15;43.30;;;16.03;;
18793;SDS011;29610;49.022;12.114;2023-12-14T07:34:44;38.60;;;14.90;;
18793;SDS011;29610;49.022;12.114;2023-12-14T07:37:12;34.80;;;15.10;;
18793;SDS011;29610;49.022;12.114;2023-12-14T07:39:41;44.43;;;20.63;;
18793;SDS011;29610;49.022;12.114;2023-12-14T07:42:09;43.43;;;19.40;;
18793;SDS011;29610;49.022;12.114;2023-12-14T07:44:39;42.17;;;18.23;;
18793;SDS011;29610;49.022;12.114;2023-12-14T07:47:07;46.67;;;20.23;;
18793;SDS011;29610;49.022;12.114;2023-12-14T07:49:36;38.30;;;17.33;;
18793;SDS011;29610;49.022;12.114;2023-12-14T07:52:05;42.70;;;19.63;;
18793;SDS011;29610;49.022;12.114;2023-12-14T07:54:34;42.03;;;17.77;;
18793;SDS011;29610;49.022;12.114;2023-12-14T07:57:03;42.23;;;18.37;;
18793;SDS011;29610;49.022;12.114;2023-12-14T07:59:31;38.37;;;14.50;;
18793;SDS011;29610;49.022;12.114;2023-12-14T08:02:01;37.33;;;15.53;;
18793;SDS011;29610;49.022;12.114;2023-12-14T08:04:30;38.40;;;16.53;;
18793;SDS011;29610;49.022;12.114;2023-12-14T08:07:03;39.53;;;15.50;;
18793;SDS011;29610;49.022;12.114;2023-12-14T08:09:31;38.03;;;17.00;;
18793;SDS011;29610;49.022;12.114;2023-12-14T08:12:00;45.43;;;17.00;;
18793;SDS011;29610;49.022;12.114;2023-12-14T08:14:28;33.70;;;14.70;;
18793;SDS011;29610;49.022;12.114;2023-12-14T08:16:59;38.27;;;16.90;;
18793;SDS011;29610;49.022;12.114;2023-12-14T08:19:29;42.73;;;15.80;;
18793;SDS011;29610;49.022;12.114;2023-12-14T08:21:57;33.67;;;14.57;;
18793;SDS011;29610;49.022;12.114;2023-12-14T08:24:26;36.67;;;15.13;;
18793;SDS011;29610;49.022;12.114;2023-12-14T08:26:54;31.63;;;14.53;;
18793;SDS011;29610;49.022;12.114;2023-12-14T08:29:23;30.27;;;13.00;;
18793;SDS011;29610;49.022;12.114;2023-12-14T08:31:52;35.53;;;14.47;;
18793;SDS011;29610;49.022;12.114;2023-12-14T08:34:23;39.77;;;14.20;;
18793;SDS011;29610;49.022;12.114;2023-12-14T08:36:53;35.47;;;14.57;;
18793;SDS011;29610;49.022;12.114;2023-12-14T08:39:23;34.40;;;14.27;;
18793;SDS011;29610;49.022;12.114;2023-12-14T08:41:53;34.73;;;13.67;;
18793;SDS011;29610;49.022;12.114;2023-12-14T08:44:21;30.90;;;13.50;;
18793;SDS011;29610;49.022;12.114;2023-12-14T08:46:50;34.07;;;13.97;;
18793;SDS011;29610;49.022;12.114;2023-12-14T08:49:18;34.07;;;12.20;;
18793;SDS011;29610;49.022;12.114;2023-12-14T08:51:46;30.60;;;13.60;;
18793;SDS011;29610;49.022;12.114;2023-12-14T08:54:16;27.87;;;13.20;;
18793;SDS011;29610;49.022;12.114;2023-12-14T08:56:45;26.13;;;10.93;;
18793;SDS011;29610;49.022;12.114;2023-12-14T08:59:14;30.27;;;11.13;;
18793;SDS011;29610;49.022;12.114;2023-12-14T09:01:42;22.40;;;12.00;;
18793;SDS011;29610;49.022;12.114;2023-12-14T09:04:11;24.73;;;11.87;;
18793;SDS011;29610;49.022;12.114;2023-12-14T09:06:39;30.83;;;13.10;;
18793;SDS011;29610;49.022;12.114;2023-12-14T09:09:11;25.77;;;11.13;;
18793;SDS011;29610;49.022;12.114;2023-12-14T09:11:41;24.13;;;10.80;;
18793;SDS011;29610;49.022;12.114;2023-12-14T09:14:09;20.43;;;9.90;;
18793;SDS011;29610;49.022;12.114;2023-12-14T09:16:37;18.47;;;8.93;;
18793;SDS011;29610;49.022;12.114;2023-12-14T09:19:06;18.00;;;9.03;;
18793;SDS011;29610;49.022;12.114;2023-12-14T09:21:34;19.30;;;9.50;;
18793;SDS011;29610;49.022;12.114;2023-12-14T09:24:11;19.53;;;9.10;;
18793;SDS011;29610;49.022;12.114;2023-12-14T09:26:41;22.30;;;9.10;;
18793;SDS011;29610;49.022;12.114;2023-12-14T09:29:10;19.60;;;8.73;;
18793;SDS011;29610;49.022;12.114;2023-12-14T09:31:40;16.70;;;8.43;;
18793;SDS011;29610;49.022;12.114;2023-12-14T09:34:10;19.83;;;8.60;;
18793;SDS011;29610;49.022;12.114;2023-12-14T09:36:39;16.57;;;8.80;;
18793;SDS011;29610;49.022;12.114;2023-12-14T09:39:07;19.20;;;8.27;;
18793;SDS011;29610;49.022;12.114;2023-12-14T09:41:37;14.60;;;8.17;;
18793;SDS011;29610;49.022;12.114;2023-12-14T09:44:07;17.73;;;7.53;;
18793;SDS011;29610;49.022;12.114;2023-12-14T09:46:36;19.93;;;8.13;;
18793;SDS011;29610;49.022;12.114;2023-12-14T09:49:11;15.43;;;8.07;;
18793;SDS011;29610;49.022;12.114;2023-12-14T09:51:41;14.57;;;7.60;;
18793;SDS011;29610;49.022;12.114;2023-12-14T09:54:09;14.23;;;6.67;;
18793;SDS011;29610;49.022;12.114;2023-12-14T09:56:45;16.63;;;9.17;;
18793;SDS011;29610;49.022;12.114;2023-12-14T09:59:15;22.17;;;9.07;;
18793;SDS011;29610;49.022;12.114;2023-12-14T10:01:44;18.43;;;8.40;;
18793;SDS011;29610;49.022;12.114;2023-12-14T10:04:13;17.53;;;8.63;;
18793;SDS011;29610;49.022;12.114;2023-12-14T10:06:47;15.40;;;7.20;;
18793;SDS011;29610;49.022;12.114;2023-12-14T10:09:22;14.43;;;7.27;;
18793;SDS011;29610;49.022;12.114;2023-12-14T10:11:51;13.70;;;6.67;;
18793;SDS011;29610;49.022;12.114;2023-12-14T10:14:33;15.13;;;6.67;;
18793;SDS011;29610;49.022;12.114;2023-12-14T10:17:13;16.67;;;8.43;;
18793;SDS011;29610;49.022;12.114;2023-12-14T10:19:44;17.30;;;7.67;;
18793;SDS011;29610;49.022;12.114;2023-12-14T10:22:14;17.20;;;8.03;;
18793;SDS011;29610;49.022;12.114;2023-12-14T10:24:45;20.10;;;7.30;;
18793;SDS011;29610;49.022;12.114;2023-12-14T10:27:15;17.13;;;8.37;;
18793;SDS011;29610;49.022;12.114;2023-12-14T10:29:45;15.47;;;6.90;;
18793;SDS011;29610;49.022;12.114;2023-12-14T10:32:14;13.60;;;7.50;;
18793;SDS011;29610;49.022;12.114;2023-12-14T10:34:42;14.93;;;7.37;;
18793;SDS011;29610;49.022;12.114;2023-12-14T10:37:10;21.87;;;9.20;;
18793;SDS011;29610;49.022;12.114;2023-12-14T10:39:41;15.00;;;8.23;;
18793;SDS011;29610;49.022;12.114;2023-12-14T10:42:13;14.70;;;7.33;;
18793;SDS011;29610;49.022;12.114;2023-12-14T10:44:51;13.13;;;7.20;;
18793;SDS011;29610;49.022;12.114;2023-12-14T10:47:42;21.40;;;7.40;;
18793;SDS011;29610;49.022;12.114;2023-12-14T10:50:14;13.80;;;6.87;;
18793;SDS011;29610;49.022;12.114;2023-12-14T10:52:43;13.43;;;6.40;;
18793;SDS011;29610;49.022;12.114;2023-12-14T10:55:15;17.90;;;6.63;;
18793;SDS011;29610;49.022;12.114;2023-12-14T10:57:51;11.63;;;6.23;;
18793;SDS011;29610;49.022;12.114;2023-12-14T11:00:21;15.40;;;7.60;;
18793;SDS011;29610;49.022;12.114;2023-12-14T11:02:49;17.50;;;7.63;;
18793;SDS011;29610;49.022;12.114;2023-12-14T11:05:21;13.83;;;7.00;;
18793;SDS011;29610;49.022;12.114;2023-12-14T11:07:56;13.57;;;6.07;;
18793;SDS011;29610;49.022;12.114;2023-12-14T11:10:36;14.27;;;7.43;;
18793;SDS011;29610;49.022;12.114;2023-12-14T11:13:07;18.57;;;6.63;;
18793;SDS011;29610;49.022;12.114;2023-12-14T11:15:40;15.93;;;7.80;;
18793;SDS011;29610;49.022;12.114;2023-12-14T11:18:20;11.73;;;5.70;;
18793;SDS011;29610;49.022;12.114;2023-12-14T11:20:55;19.30;;;6.80;;
18793;SDS011;29610;49.022;12.114;2023-12-14T11:23:28;12.03;;;6.30;;
18793;SDS011;29610;49.022;12.114;2023-12-14T11:26:00;16.10;;;6.13;;
18793;SDS011;29610;49.022;12.114;2023-12-14T11:28:32;11.03;;;5.70;;
18793;SDS011;29610;49.022;12.114;2023-12-14T11:31:05;11.13;;;5.73;;
18793;SDS011;29610;49.022;12.114;2023-12-14T11:33:37;13.03;;;5.40;;
18793;SDS011;29610;49.022;12.114;2023-12-14T11:36:11;10.87;;;4.87;;
18793;SDS011;29610;49.022;12.114;2023-12-14T11:38:41;10.20;;;5.00;;
18793;SDS011;29610;49.022;12.114;2023-12-14T11:41:11;12.53;;;5.90;;
18793;SDS011;29610;49.022;12.114;2023-12-14T11:43:40;20.27;;;5.60;;
18793;SDS011;29610;49.022;12.114;2023-12-14T11:46:12;13.53;;;6.03;;
18793;SDS011;29610;49.022;12.114;2023-12-14T11:48:43;10.73;;;5.00;;
18793;SDS011;29610;49.022;12.114;2023-12-14T11:51:12;10.83;;;5.13;;
18793;SDS011;29610;49.022;12.114;2023-12-14T11:53:43;10.53;;;4.23;;
18793;SDS011;29610;49.022;12.114;2023-12-14T11:56:14;9.70;;;4.40;;
18793;SDS011;29610;49.022;12.114;2023-12-14T11:58:45;8.73;;;4.60;;
18793;SDS011;29610;49.022;12.114;2023-12-14T12:01:17;10.83;;;5.10;;
18793;SDS011;29610;49.022;12.114;2023-12-14T12:03:47;12.30;;;4.30;;
18793;SDS011;29610;49.022;12.114;2023-12-14T12:06:19;8.00;;;3.83;;
18793;SDS011;29610;49.022;12.114;2023-12-14T12:08:50;8.20;;;3.20;;
18793;SDS011;29610;49.022;12.114;2023-12-14T12:11:19;8.27;;;3.93;;
18793;SDS011;29610;49.022;12.114;2023-12-14T12:13:50;11.00;;;4.90;;
18793;SDS011;29610;49.022;12.114;2023-12-14T12:16:21;10.50;;;3.60;;
18793;SDS011;29610;49.022;12.114;2023-12-14T12:18:50;9.90;;;4.47;;
18793;SDS011;29610;49.022;12.114;2023-12-14T12:21:19;12.30;;;4.77;;
18793;SDS011;29610;49.022;12.114;2023-12-14T12:23:48;10.73;;;4.20;;
18793;SDS011;29610;49.022;12.114;2023-12-14T12:26:16;7.97;;;3.87;;
18793;SDS011;29610;49.022;12.114;2023-12-14T12:28:44;9.07;;;3.90;;
18793;SDS011;29610;49.022;12.114;2023-12-14T12:31:15;9.63;;;4.30;;
18793;SDS011;29610;49.022;12.114;2023-12-14T12:33:45;7.77;;;3.83;;
18793;SDS011;29610;49.022;12.114;2023-12-14T12:36:13;10.40;;;4.80;;
18793;SDS011;29610;49.022;12.114;2023-12-14T12:38:41;9.20;;;4.07;;
18793;SDS011;29610;49.022;12.114;2023-12-14T12:41:10;9.30;;;4.33;;
18793;SDS011;29610;49.022;12.114;2023-12-14T12:43:38;10.33;;;4.50;;
18793;SDS011;29610;49.022;12.114;2023-12-14T12:46:06;9.80;;;4.70;;
18793;SDS011;29610;49.022;12.114;2023-12-14T12:48:35;10.30;;;4.60;;
18793;SDS011;29610;49.022;12.114;2023-12-14T12:51:06;12.97;;;4.70;;
18793;SDS011;29610;49.022;12.114;2023-12-14T12:53:34;10.40;;;4.60;;
18793;SDS011;29610;49.022;12.114;2023-12-14T12:56:03;8.97;;;4.70;;
18793;SDS011;29610;49.022;12.114;2023-12-14T12:58:32;10.40;;;4.80;;
18793;SDS011;29610;49.022;12.114;2023-12-14T13:01:00;12.17;;;4.93;;
18793;SDS011;29610;49.022;12.114;2023-12-14T13:03:29;10.10;;;5.40;;
18793;SDS011;29610;49.022;12.114;2023-12-14T13:05:57;12.87;;;5.70;;
18793;SDS011;29610;49.022;12.114;2023-12-14T13:08:27;11.30;;;4.97;;
18793;SDS011;29610;49.022;12.114;2023-12-14T13:10:55;13.43;;;5.40;;
18793;SDS011;29610;49.022;12.114;2023-12-14T13:13:24;11.00;;;4.97;;
18793;SDS011;29610;49.022;12.114;2023-12-14T13:15:52;10.83;;;5.13;;
18793;SDS011;29610;49.022;12.114;2023-12-14T13:18:20;11.50;;;5.10;;
18793;SDS011;29610;49.022;12.114;2023-12-14T13:20:49;9.43;;;4.97;;
18793;SDS011;29610;49.022;12.114;2023-12-14T13:23:17;10.30;;;5.77;;
18793;SDS011;29610;49.022;12.114;2023-12-14T13:25:47;13.13;;;5.20;;
18793;SDS011;29610;49.022;12.114;2023-12-14T13:28:15;10.30;;;4.97;;
18793;SDS011;29610;49.022;12.114;2023-12-14T13:30:44;9.60;;;4.20;;
18793;SDS011;29610;49.022;12.114;2023-12-14T13:33:12;10.50;;;4.43;;
18793;SDS011;29610;49.022;12.114;2023-12-14T13:35:41;10.20;;;5.73;;
18793;SDS011;29610;49.022;12.114;2023-12-14T13:38:10;12.00;;;5.47;;
18793;SDS011;29610;49.022;12.114;2023-12-14T13:40:38;11.30;;;6.17;;
18793;SDS011;29610;49.022;12.114;2023-12-14T13:43:08;11.00;;;5.77;;
18793;SDS011;29610;49.022;12.114;2023-12-14T13:45:38;11.23;;;5.53;;
18793;SDS011;29610;49.022;12.114;2023-12-14T13:48:09;8.77;;;4.53;;
18793;SDS011;29610;49.022;12.114;2023-12-14T13:50:37;12.20;;;5.80;;
18793;SDS011;29610;49.022;12.114;2023-12-14T13:53:07;11.67;;;5.90;;
18793;SDS011;29610;49.022;12.114;2023-12-14T13:55:35;16.77;;;7.60;;
18793;SDS011;29610;49.022;12.114;2023-12-14T13:58:03;14.07;;;5.77;;
18793;SDS011;29610;49.022;12.114;2023-12-14T14:00:33;12.43;;;5.30;;
18793;SDS011;29610;49.022;12.114;2023-12-14T14:03:03;12.33;;;4.73;;
18793;SDS011;29610;49.022;12.114;2023-12-14T14:05:32;11.97;;;5.73;;
18793;SDS011;29610;49.022;12.114;2023-12-14T14:08:01;14.10;;;4.60;;
18793;SDS011;29610;49.022;12.114;2023-12-14T14:10:30;15.47;;;4.47;;
18793;SDS011;29610;49.022;12.114;2023-12-14T14:12:58;9.47;;;4.87;;
18793;SDS011;29610;49.022;12.114;2023-12-14T14:15:27;10.77;;;5.23;;
18793;SDS011;29610;49.022;12.114;2023-12-14T14:17:56;9.10;;;4.70;;
18793;SDS011;29610;49.022;12.114;2023-12-14T14:20:25;10.00;;;4.70;;
18793;SDS011;29610;49.022;12.114;2023-12-14T14:22:53;10.00;;;4.57;;
18793;SDS011;29610;49.022;12.114;2023-12-14T14:25:22;13.10;;;5.00;;
18793;SDS011;29610;49.022;12.114;2023-12-14T14:27:51;10.13;;;4.40;;
18793;SDS011;29610;49.022;12.114;2023-12-14T14:30:19;14.00;;;5.13;;